createdAt,value
2022-07-31T00:00:59.149Z,69.27
2022-07-31T00:03:26.888Z,69.29
2022-07-31T00:05:54.638Z,69.34
2022-07-31T00:08:23.276Z,69.40
2022-07-31T00:10:51.172Z,69.46
2022-07-31T00:13:18.904Z,69.43
2022-07-31T00:16:06.607Z,69.60
2022-07-31T00:18:35.381Z,69.49
2022-07-31T00:21:03.589Z,69.59
2022-07-31T00:23:31.345Z,69.48
2022-07-31T00:25:59.143Z,69.38
2022-07-31T00:28:26.994Z,69.65
2022-07-31T00:30:55.454Z,69.58
2022-07-31T00:33:23.149Z,69.80
2022-07-31T00:35:50.859Z,69.82
2022-07-31T00:38:33.933Z,69.95
2022-07-31T00:41:02.948Z,70.01
2022-07-31T00:43:31.093Z,69.91
2022-07-31T00:45:59.504Z,69.91
2022-07-31T00:48:27.831Z,69.83
2022-07-31T00:50:57.281Z,69.83
2022-07-31T00:53:25.438Z,70.06
2022-07-31T00:55:53.183Z,70.23
2022-07-31T00:58:21.067Z,70.00
2022-07-31T01:00:49.018Z,70.14
2022-07-31T01:03:18.740Z,70.14
2022-07-31T01:05:46.687Z,70.10
2022-07-31T01:08:14.430Z,70.27
2022-07-31T01:11:10.198Z,70.19
2022-07-31T01:13:50.806Z,70.11
2022-07-31T01:16:19.797Z,70.19
2022-07-31T01:18:48.397Z,70.14
2022-07-31T01:21:28.153Z,70.27
2022-07-31T01:24:08.612Z,70.31
2022-07-31T01:26:59.804Z,70.40
2022-07-31T01:29:32.763Z,70.39
2022-07-31T01:32:18.601Z,70.44
2022-07-31T01:34:57.659Z,70.48
2022-07-31T01:37:33.428Z,70.48
2022-07-31T01:40:10.224Z,70.47
2022-07-31T01:42:41.650Z,70.50
2022-07-31T01:45:11.467Z,70.44
2022-07-31T01:47:42.119Z,70.44
2022-07-31T01:50:42.196Z,70.46
2022-07-31T01:53:01.210Z,70.54
2022-07-31T01:55:30.743Z,70.62
2022-07-31T01:58:21.090Z,70.55
2022-07-31T02:00:51.400Z,70.56
2022-07-31T02:03:20.322Z,70.62
2022-07-31T02:06:09.124Z,70.72
2022-07-31T02:08:37.121Z,70.83
2022-07-31T02:11:06.144Z,70.97
2022-07-31T02:13:38.571Z,70.87
2022-07-31T02:16:06.914Z,70.66
2022-07-31T02:18:35.504Z,70.74
2022-07-31T02:21:03.414Z,70.58
2022-07-31T02:23:31.242Z,70.70
2022-07-31T02:25:59.385Z,70.82
2022-07-31T02:28:29.599Z,70.65
2022-07-31T02:30:58.297Z,70.74
2022-07-31T02:33:26.803Z,70.99
2022-07-31T02:35:56.380Z,70.84
2022-07-31T02:38:27.261Z,70.96
2022-07-31T02:41:01.689Z,71.11
2022-07-31T02:43:32.260Z,71.13
2022-07-31T02:46:00.683Z,71.19
2022-07-31T02:48:29.391Z,71.05
2022-07-31T02:50:57.483Z,70.99
2022-07-31T02:53:25.988Z,71.26
2022-07-31T02:55:54.360Z,71.26
2022-07-31T02:58:22.350Z,71.56
2022-07-31T03:00:59.371Z,71.71
2022-07-31T03:03:27.539Z,71.61
2022-07-31T03:05:56.293Z,71.58
2022-07-31T03:08:24.192Z,71.72
2022-07-31T03:10:51.902Z,71.63
2022-07-31T03:13:22.990Z,71.70
2022-07-31T03:15:52.282Z,71.80
2022-07-31T03:18:21.822Z,71.84
2022-07-31T03:20:53.306Z,71.78
2022-07-31T03:23:22.830Z,71.87
2022-07-31T03:25:51.459Z,71.96
2022-07-31T03:28:20.616Z,71.87
2022-07-31T03:30:51.787Z,71.85
2022-07-31T03:33:24.695Z,71.85
2022-07-31T03:35:53.443Z,71.91
2022-07-31T03:38:39.464Z,71.81
2022-07-31T03:41:08.995Z,71.74
2022-07-31T03:43:44.195Z,71.86
2022-07-31T03:46:17.886Z,71.80
2022-07-31T03:48:47.962Z,71.80
2022-07-31T03:51:16.349Z,71.73
2022-07-31T03:53:46.231Z,71.79
2022-07-31T03:56:15.804Z,71.71
2022-07-31T03:58:46.037Z,71.77
2022-07-31T04:01:20.761Z,71.88
2022-07-31T04:03:48.786Z,72.00
2022-07-31T04:06:16.530Z,72.17
2022-07-31T04:08:44.376Z,72.06
2022-07-31T04:11:12.760Z,71.99
2022-07-31T04:13:40.467Z,71.88
2022-07-31T04:16:08.192Z,71.91
2022-07-31T04:18:36.025Z,71.92
2022-07-31T04:21:03.860Z,72.00
2022-07-31T04:23:32.523Z,72.13
2022-07-31T04:26:00.551Z,72.05
2022-07-31T04:28:28.338Z,72.24
2022-07-31T04:30:56.179Z,72.02
2022-07-31T04:33:23.889Z,72.06
2022-07-31T04:35:52.908Z,71.83
2022-07-31T04:38:21.754Z,71.95
2022-07-31T04:40:50.135Z,72.15
2022-07-31T04:43:17.879Z,72.14
2022-07-31T04:45:45.890Z,72.22
2022-07-31T04:48:13.610Z,72.21
2022-07-31T04:50:41.351Z,72.13
2022-07-31T04:53:09.095Z,72.12
2022-07-31T04:55:36.791Z,72.13
2022-07-31T04:58:04.522Z,72.05
2022-07-31T05:00:32.402Z,72.18
2022-07-31T05:03:00.270Z,72.26
2022-07-31T05:05:27.962Z,72.10
2022-07-31T05:07:55.674Z,72.20
2022-07-31T05:10:41.681Z,72.23
2022-07-31T05:13:10.339Z,72.18
2022-07-31T05:15:38.076Z,72.10
2022-07-31T05:18:07.777Z,72.11
2022-07-31T05:20:35.501Z,72.06
2022-07-31T05:23:03.270Z,72.16
2022-07-31T05:25:34.553Z,72.29
2022-07-31T05:28:02.654Z,72.26
2022-07-31T05:30:30.886Z,72.22
2022-07-31T05:32:58.772Z,72.24
2022-07-31T05:35:26.529Z,72.29
2022-07-31T05:37:54.672Z,72.32
2022-07-31T05:40:22.396Z,72.40
2022-07-31T05:42:50.077Z,72.30
2022-07-31T05:45:18.081Z,72.17
2022-07-31T05:47:45.838Z,72.27
2022-07-31T05:50:14.490Z,72.11
2022-07-31T05:52:42.828Z,72.24
2022-07-31T05:55:10.690Z,72.23
2022-07-31T05:57:38.507Z,72.14
2022-07-31T06:00:06.784Z,72.22
2022-07-31T06:02:37.181Z,72.22
2022-07-31T06:05:05.487Z,72.16
2022-07-31T06:07:33.280Z,72.21
2022-07-31T06:10:02.433Z,72.30
2022-07-31T06:12:30.191Z,72.25
2022-07-31T06:14:58.279Z,72.12
2022-07-31T06:17:28.988Z,71.99
2022-07-31T06:20:13.188Z,72.13
2022-07-31T06:22:43.919Z,72.19
2022-07-31T06:25:14.127Z,72.22
2022-07-31T06:27:43.108Z,72.18
2022-07-31T06:30:15.658Z,72.03
2022-07-31T06:32:43.533Z,72.12
2022-07-31T06:35:11.325Z,72.04
2022-07-31T06:37:39.090Z,72.10
2022-07-31T06:40:08.298Z,71.92
2022-07-31T06:42:37.589Z,72.18
2022-07-31T06:45:06.081Z,72.05
2022-07-31T06:47:33.823Z,71.95
2022-07-31T06:50:02.073Z,71.98
2022-07-31T06:52:29.805Z,71.97
2022-07-31T06:54:57.571Z,71.99
2022-07-31T06:57:25.368Z,72.03
2022-07-31T06:59:53.343Z,72.00
2022-07-31T07:02:21.202Z,71.97
2022-07-31T07:05:00.775Z,72.01
2022-07-31T07:07:37.752Z,71.95
2022-07-31T07:10:06.154Z,71.92
2022-07-31T07:12:33.903Z,71.96
2022-07-31T07:15:02.555Z,71.84
2022-07-31T07:17:31.007Z,71.95
2022-07-31T07:19:58.936Z,71.89
2022-07-31T07:22:31.769Z,71.83
2022-07-31T07:25:01.099Z,71.80
2022-07-31T07:27:29.009Z,71.82
2022-07-31T07:29:57.420Z,71.74
2022-07-31T07:32:25.367Z,71.68
2022-07-31T07:34:59.695Z,71.78
2022-07-31T07:37:28.885Z,71.82
2022-07-31T07:39:57.184Z,71.78
2022-07-31T07:42:32.028Z,71.81
2022-07-31T07:44:59.956Z,71.88
2022-07-31T07:47:54.060Z,71.86
2022-07-31T07:50:16.805Z,71.67
2022-07-31T07:52:44.691Z,71.69
2022-07-31T07:55:12.744Z,71.87
2022-07-31T07:57:45.039Z,71.65
2022-07-31T08:00:16.407Z,71.72
2022-07-31T08:03:47.344Z,71.65
2022-07-31T08:05:33.479Z,71.55
2022-07-31T08:08:01.204Z,71.58
2022-07-31T08:10:29.002Z,71.64
2022-07-31T08:12:57.756Z,71.67
2022-07-31T08:15:25.991Z,71.66
2022-07-31T08:17:53.832Z,71.56
2022-07-31T08:20:21.598Z,71.57
2022-07-31T08:22:49.323Z,71.52
2022-07-31T08:25:17.051Z,71.53
2022-07-31T08:27:44.785Z,71.37
2022-07-31T08:30:16.192Z,71.46
2022-07-31T08:32:43.988Z,71.44
2022-07-31T08:35:14.400Z,71.50
2022-07-31T08:37:52.242Z,71.50
2022-07-31T08:40:30.905Z,71.51
2022-07-31T08:43:00.968Z,71.47
2022-07-31T08:45:30.317Z,71.47
2022-07-31T08:48:00.325Z,71.50
2022-07-31T08:50:29.742Z,71.39
2022-07-31T08:52:59.851Z,71.36
2022-07-31T08:55:56.200Z,71.29
2022-07-31T08:58:19.251Z,71.21
2022-07-31T09:00:47.083Z,71.00
2022-07-31T09:03:15.926Z,71.17
2022-07-31T09:05:43.736Z,71.07
2022-07-31T09:08:14.787Z,70.97
2022-07-31T09:10:47.808Z,71.10
2022-07-31T09:13:19.154Z,71.14
2022-07-31T09:15:47.031Z,71.17
2022-07-31T09:18:22.154Z,71.25
2022-07-31T09:20:58.847Z,71.05
2022-07-31T09:23:27.898Z,71.03
2022-07-31T09:26:02.108Z,70.95
2022-07-31T09:28:39.500Z,71.08
2022-07-31T09:31:09.117Z,70.94
2022-07-31T09:33:42.280Z,71.13
2022-07-31T09:36:12.007Z,70.89
2022-07-31T09:38:41.944Z,70.80
2022-07-31T09:41:53.549Z,70.77
2022-07-31T09:44:10.457Z,70.71
2022-07-31T09:46:41.726Z,70.34
2022-07-31T09:49:10.111Z,70.49
2022-07-31T09:51:39.776Z,70.72
2022-07-31T09:54:08.700Z,70.59
2022-07-31T09:56:36.473Z,70.62
2022-07-31T09:59:04.937Z,70.59
2022-07-31T10:01:36.514Z,70.62
2022-07-31T10:04:06.961Z,70.40
2022-07-31T10:06:36.345Z,70.52
2022-07-31T10:09:06.500Z,70.42
2022-07-31T10:11:34.324Z,70.39
2022-07-31T10:14:04.091Z,70.39
2022-07-31T10:16:36.617Z,70.21
2022-07-31T10:19:11.457Z,70.25
2022-07-31T10:21:47.398Z,70.11
2022-07-31T10:24:19.189Z,70.18
2022-07-31T10:27:09.169Z,70.09
2022-07-31T10:29:41.165Z,70.13
2022-07-31T10:32:09.419Z,70.02
2022-07-31T10:34:37.922Z,70.14
2022-07-31T10:37:13.703Z,70.09
2022-07-31T10:39:58.448Z,70.03
2022-07-31T10:42:35.745Z,69.99
2022-07-31T10:45:06.729Z,70.02
2022-07-31T10:47:35.066Z,69.92
2022-07-31T10:50:04.744Z,69.87
2022-07-31T10:52:35.748Z,69.91
2022-07-31T10:55:30.461Z,69.83
2022-07-31T10:58:14.302Z,69.96
2022-07-31T11:00:43.442Z,69.85
2022-07-31T11:03:20.245Z,69.81
2022-07-31T11:06:01.119Z,69.67
2022-07-31T11:08:46.816Z,69.77
2022-07-31T11:11:15.343Z,69.82
2022-07-31T11:13:47.749Z,69.74
2022-07-31T11:16:16.200Z,69.53
2022-07-31T11:18:46.202Z,69.42
2022-07-31T11:21:36.298Z,69.43
2022-07-31T11:24:14.187Z,69.33
2022-07-31T11:26:52.907Z,69.38
2022-07-31T11:29:59.557Z,69.35
2022-07-31T11:32:22.904Z,69.14
2022-07-31T11:34:57.548Z,69.26
2022-07-31T11:37:43.345Z,69.19
2022-07-31T11:40:16.431Z,69.28
2022-07-31T11:43:00.007Z,69.18
2022-07-31T11:45:46.951Z,69.09
2022-07-31T11:48:19.268Z,68.93
2022-07-31T11:50:49.721Z,68.77
2022-07-31T11:53:18.906Z,68.58
2022-07-31T11:55:59.129Z,68.75
2022-07-31T11:58:29.632Z,68.60
2022-07-31T12:00:59.884Z,68.87
2022-07-31T12:03:33.423Z,68.31
2022-07-31T12:06:01.577Z,68.41
2022-07-31T12:08:30.157Z,68.65
2022-07-31T12:11:00.296Z,68.44
2022-07-31T12:13:29.278Z,68.42
2022-07-31T12:16:01.141Z,68.27
2022-07-31T12:18:30.279Z,68.27
2022-07-31T12:21:05.263Z,68.23
2022-07-31T12:23:44.263Z,68.25
2022-07-31T12:26:21.498Z,68.21
2022-07-31T12:29:07.196Z,67.93
2022-07-31T12:31:53.288Z,68.01
2022-07-31T12:34:41.716Z,67.89
2022-07-31T12:37:17.516Z,67.84
2022-07-31T12:39:59.212Z,67.85
2022-07-31T12:42:30.950Z,67.97
2022-07-31T12:45:19.747Z,67.99
2022-07-31T12:47:53.471Z,67.96
2022-07-31T12:50:22.342Z,67.67
2022-07-31T12:52:50.187Z,67.64
2022-07-31T12:55:18.819Z,67.64
2022-07-31T12:57:50.229Z,67.59
2022-07-31T13:00:22.789Z,67.57
2022-07-31T13:02:52.277Z,67.73
2022-07-31T13:05:21.059Z,67.67
2022-07-31T13:07:49.268Z,67.50
2022-07-31T13:10:22.168Z,67.58
2022-07-31T13:12:53.320Z,67.47
2022-07-31T13:15:29.785Z,67.43
2022-07-31T13:17:59.914Z,67.34
2022-07-31T13:20:27.763Z,67.37
2022-07-31T13:22:55.504Z,67.36
2022-07-31T13:25:23.314Z,67.39
2022-07-31T13:27:51.033Z,67.54
2022-07-31T13:30:18.730Z,67.47
2022-07-31T13:32:46.540Z,67.41
2022-07-31T13:35:26.913Z,67.43
2022-07-31T13:37:56.260Z,67.39
2022-07-31T13:40:43.663Z,67.38
2022-07-31T13:43:12.336Z,67.38
2022-07-31T13:45:40.505Z,67.19
2022-07-31T13:48:10.249Z,67.16
2022-07-31T13:50:39.988Z,67.23
2022-07-31T13:53:09.874Z,67.23
2022-07-31T13:55:38.096Z,67.12
2022-07-31T13:58:05.890Z,67.23
2022-07-31T14:00:34.451Z,67.08
2022-07-31T14:03:02.895Z,67.17
2022-07-31T14:05:32.029Z,67.24
2022-07-31T14:08:33.362Z,67.35
2022-07-31T14:10:57.313Z,67.29
2022-07-31T14:13:25.686Z,67.24
2022-07-31T14:15:54.067Z,67.15
2022-07-31T14:18:23.361Z,67.16
2022-07-31T14:20:52.111Z,67.19
2022-07-31T14:23:19.931Z,67.24
2022-07-31T14:25:47.723Z,67.24
2022-07-31T14:28:22.852Z,67.29
2022-07-31T14:30:50.804Z,67.28
2022-07-31T14:33:18.628Z,67.30
2022-07-31T14:35:54.580Z,67.38
2022-07-31T14:38:27.516Z,67.29
2022-07-31T14:40:56.122Z,67.26
2022-07-31T14:43:24.433Z,67.23
2022-07-31T14:45:52.923Z,67.04
2022-07-31T14:48:22.051Z,67.08
2022-07-31T14:50:50.365Z,66.98
2022-07-31T14:53:18.140Z,67.07
2022-07-31T14:55:46.045Z,67.09
2022-07-31T14:58:13.906Z,67.13
2022-07-31T15:00:41.712Z,67.08
2022-07-31T15:03:09.482Z,67.08
2022-07-31T15:06:49.397Z,67.18
2022-07-31T15:08:27.117Z,67.07
2022-07-31T15:10:55.228Z,67.06
2022-07-31T15:13:24.062Z,67.16
2022-07-31T15:15:51.784Z,67.20
2022-07-31T15:18:19.821Z,67.16
2022-07-31T15:20:52.342Z,67.35
2022-07-31T15:23:20.630Z,67.30
2022-07-31T15:25:48.320Z,67.21
2022-07-31T15:28:17.233Z,67.41
2022-07-31T15:30:45.210Z,67.27
2022-07-31T15:33:13.011Z,67.25
2022-07-31T15:35:40.938Z,67.26
2022-07-31T15:38:08.909Z,67.25
2022-07-31T15:40:36.656Z,67.31
2022-07-31T15:43:04.473Z,67.22
2022-07-31T15:45:32.168Z,67.15
2022-07-31T15:48:00.370Z,67.09
2022-07-31T15:50:28.094Z,67.25
2022-07-31T15:52:55.923Z,67.21
2022-07-31T15:55:23.803Z,67.14
2022-07-31T15:57:51.646Z,67.39
2022-07-31T16:00:19.828Z,67.37
2022-07-31T16:02:48.236Z,67.38
2022-07-31T16:05:21.589Z,67.40
2022-07-31T16:08:32.407Z,67.36
2022-07-31T16:10:38.433Z,67.45
2022-07-31T16:13:06.383Z,67.35
2022-07-31T16:15:34.930Z,67.40
2022-07-31T16:18:02.991Z,67.52
2022-07-31T16:20:30.737Z,67.39
2022-07-31T16:23:01.600Z,67.63
2022-07-31T16:25:31.997Z,67.64
2022-07-31T16:28:03.904Z,67.60
2022-07-31T16:30:32.260Z,67.42
2022-07-31T16:33:00.056Z,67.37
2022-07-31T16:35:27.886Z,67.69
2022-07-31T16:37:55.695Z,67.38
2022-07-31T16:40:29.708Z,67.63
2022-07-31T16:43:47.755Z,67.72
2022-07-31T16:45:52.179Z,67.91
2022-07-31T16:48:19.976Z,67.84
2022-07-31T16:50:53.873Z,67.77
2022-07-31T16:54:10.457Z,67.88
2022-07-31T16:56:11.891Z,68.21
2022-07-31T16:58:39.943Z,67.95
2022-07-31T17:01:58.292Z,67.92
2022-07-31T17:04:00.549Z,68.15
2022-07-31T17:06:36.507Z,67.99
2022-07-31T17:09:16.451Z,68.04
2022-07-31T17:11:49.358Z,68.16
2022-07-31T17:14:19.501Z,68.09
2022-07-31T17:16:49.655Z,68.29
2022-07-31T17:19:42.902Z,68.11
2022-07-31T17:22:07.896Z,68.01
2022-07-31T17:24:37.625Z,68.20
2022-07-31T17:27:09.686Z,68.38
2022-07-31T17:29:38.279Z,68.39
2022-07-31T17:32:06.403Z,68.58
2022-07-31T17:34:35.530Z,68.67
2022-07-31T17:37:04.655Z,68.54
2022-07-31T17:39:33.136Z,68.64
2022-07-31T17:42:00.944Z,68.43
2022-07-31T17:44:28.713Z,68.66
2022-07-31T17:46:58.076Z,68.74
2022-07-31T17:49:27.484Z,68.69
2022-07-31T17:51:57.746Z,68.70
2022-07-31T17:54:31.612Z,68.71
2022-07-31T17:57:00.093Z,68.73
2022-07-31T17:59:31.162Z,68.75
2022-07-31T18:02:07.990Z,68.55
2022-07-31T18:04:39.909Z,68.77
2022-07-31T18:07:08.292Z,68.84
2022-07-31T18:09:37.114Z,68.88
2022-07-31T18:12:05.385Z,69.08
2022-07-31T18:14:33.289Z,69.00
2022-07-31T18:17:01.323Z,68.99
2022-07-31T18:19:29.332Z,69.08
2022-07-31T18:21:57.771Z,69.12
2022-07-31T18:24:25.623Z,69.25
2022-07-31T18:26:56.238Z,69.28
2022-07-31T18:29:24.104Z,69.29
2022-07-31T18:31:51.903Z,69.22
2022-07-31T18:34:19.777Z,69.24
2022-07-31T18:36:54.418Z,69.38
2022-07-31T18:39:24.560Z,69.46
2022-07-31T18:41:52.715Z,69.40
2022-07-31T18:44:22.059Z,69.55
2022-07-31T18:46:50.024Z,69.56
2022-07-31T18:50:58.774Z,69.68
2022-07-31T18:52:06.181Z,69.69
2022-07-31T18:54:34.255Z,69.69
2022-07-31T18:57:03.548Z,69.81
2022-07-31T18:59:31.589Z,69.77
2022-07-31T19:01:59.959Z,69.96
2022-07-31T19:04:28.200Z,70.04
2022-07-31T19:06:56.025Z,70.03
2022-07-31T19:09:25.410Z,70.03
2022-07-31T19:12:03.721Z,70.13
2022-07-31T19:14:36.038Z,70.17
2022-07-31T19:17:04.053Z,70.10
2022-07-31T19:19:49.570Z,70.17
2022-07-31T19:22:22.163Z,70.14
2022-07-31T19:24:50.760Z,70.12
2022-07-31T19:27:20.033Z,70.26
2022-07-31T19:29:47.849Z,70.29
2022-07-31T19:32:15.665Z,70.33
2022-07-31T19:34:47.997Z,70.46
2022-07-31T19:37:18.223Z,70.32
2022-07-31T19:39:47.166Z,70.35
2022-07-31T19:42:15.044Z,70.59
2022-07-31T19:44:43.662Z,70.49
2022-07-31T19:47:11.462Z,70.53
2022-07-31T19:49:41.058Z,70.49
2022-07-31T19:52:09.288Z,70.67
2022-07-31T19:54:40.451Z,70.57
2022-07-31T19:57:08.486Z,70.43
2022-07-31T19:59:36.439Z,70.63
2022-07-31T20:02:04.658Z,70.62
2022-07-31T20:04:32.710Z,70.80
2022-07-31T20:07:00.426Z,70.74
2022-07-31T20:09:28.274Z,70.79
2022-07-31T20:11:55.992Z,70.82
2022-07-31T20:14:23.767Z,71.04
2022-07-31T20:16:51.768Z,70.90
2022-07-31T20:19:19.486Z,70.96
2022-07-31T20:21:47.264Z,71.03
2022-07-31T20:24:19.942Z,70.89
2022-07-31T20:26:47.734Z,70.89
2022-07-31T20:29:15.580Z,70.93
2022-07-31T20:31:43.362Z,70.94
2022-07-31T20:34:11.104Z,70.93
2022-07-31T20:36:41.734Z,70.90
2022-07-31T20:39:09.650Z,70.91
2022-07-31T20:41:37.700Z,70.79
2022-07-31T20:44:05.585Z,70.92
2022-07-31T20:46:33.423Z,70.95
2022-07-31T20:49:01.522Z,71.05
2022-07-31T20:51:29.508Z,71.03
2022-07-31T20:53:58.638Z,70.98
2022-07-31T20:56:26.988Z,71.12
2022-07-31T20:58:54.905Z,71.25
2022-07-31T21:01:23.135Z,71.13
2022-07-31T21:03:51.143Z,71.36
2022-07-31T21:06:21.052Z,71.20
2022-07-31T21:08:49.290Z,71.21
2022-07-31T21:11:17.214Z,71.41
2022-07-31T21:13:45.577Z,71.39
2022-07-31T21:16:13.456Z,71.23
2022-07-31T21:18:43.515Z,71.24
2022-07-31T21:21:11.958Z,71.36
2022-07-31T21:23:39.923Z,71.41
2022-07-31T21:26:08.217Z,71.49
2022-07-31T21:28:39.770Z,71.51
2022-07-31T21:31:07.771Z,71.58
2022-07-31T21:33:36.017Z,71.54
2022-07-31T21:36:05.968Z,71.67
2022-07-31T21:38:36.249Z,71.83
2022-07-31T21:41:04.287Z,71.61
2022-07-31T21:43:37.218Z,71.56
2022-07-31T21:46:22.674Z,71.66
2022-07-31T21:48:51.674Z,71.82
2022-07-31T21:51:19.606Z,71.67
2022-07-31T21:53:47.537Z,71.89
2022-07-31T21:56:16.415Z,71.83
2022-07-31T21:58:44.731Z,71.85
2022-07-31T22:01:15.050Z,71.94
2022-07-31T22:03:46.051Z,72.09
2022-07-31T22:06:32.505Z,72.02
2022-07-31T22:09:00.401Z,72.17
2022-07-31T22:11:28.235Z,72.15
2022-07-31T22:13:56.024Z,72.14
2022-07-31T22:16:23.756Z,72.16
2022-07-31T22:18:51.957Z,72.13
2022-07-31T22:21:19.773Z,72.37
2022-07-31T22:23:47.790Z,72.22
2022-07-31T22:26:15.815Z,72.21
2022-07-31T22:28:44.267Z,72.19
2022-07-31T22:31:12.318Z,72.46
2022-07-31T22:33:40.375Z,72.18
2022-07-31T22:36:08.627Z,72.37
2022-07-31T22:38:38.127Z,72.52
2022-07-31T22:41:06.188Z,72.37
2022-07-31T22:44:11.014Z,72.38
2022-07-31T22:46:22.048Z,72.51
2022-07-31T22:48:50.669Z,72.60
2022-07-31T22:51:18.782Z,72.56
2022-07-31T22:53:48.966Z,72.48
2022-07-31T22:56:18.177Z,72.49
2022-07-31T22:58:46.446Z,72.57
2022-07-31T23:01:14.174Z,72.55
2022-07-31T23:03:44.022Z,72.85
2022-07-31T23:06:30.597Z,72.75
2022-07-31T23:09:00.765Z,72.84
2022-07-31T23:11:29.028Z,72.84
2022-07-31T23:13:59.180Z,72.81
2022-07-31T23:16:27.104Z,72.94
2022-07-31T23:18:55.046Z,72.63
2022-07-31T23:21:23.010Z,72.75
2022-07-31T23:23:51.009Z,72.92
2022-07-31T23:26:19.770Z,73.02
2022-07-31T23:28:48.565Z,73.05
2022-07-31T23:31:17.254Z,73.04
2022-07-31T23:33:46.859Z,73.15
2022-07-31T23:36:15.730Z,73.15
2022-07-31T23:38:44.531Z,73.06
2022-07-31T23:41:12.873Z,73.25
2022-07-31T23:43:41.530Z,73.17
2022-07-31T23:46:26.704Z,73.29
2022-07-31T23:48:55.999Z,73.15
2022-07-31T23:51:24.138Z,73.22
2022-07-31T23:53:52.397Z,73.30
2022-07-31T23:56:20.445Z,73.27
2022-07-31T23:58:48.406Z,73.42
